createdAt,value
2019-04-16T00:00:55.472Z,17.70
2019-04-16T00:03:24.809Z,17.25
2019-04-16T00:05:58.634Z,17.55
2019-04-16T00:08:28.415Z,17.55
2019-04-16T00:11:02.383Z,17.25
2019-04-16T00:13:33.341Z,18.30
2019-04-16T00:16:04.305Z,17.95
2019-04-16T00:18:33.671Z,17.62
2019-04-16T00:21:06.406Z,17.65
2019-04-16T00:23:54.557Z,18.10
2019-04-16T00:26:26.812Z,18.37
2019-04-16T00:28:55.167Z,18.80
2019-04-16T00:31:24.674Z,18.75
2019-04-16T00:33:54.064Z,18.07
2019-04-16T00:36:23.426Z,19.12
2019-04-16T00:38:54.671Z,17.87
2019-04-16T00:41:23.985Z,18.42
2019-04-16T00:43:53.273Z,19.12
2019-04-16T00:46:23.014Z,18.65
2019-04-16T00:48:52.313Z,18.90
2019-04-16T00:51:21.707Z,19.37
2019-04-16T00:53:51.059Z,19.02
2019-04-16T00:56:20.588Z,19.02
2019-04-16T00:58:52.146Z,18.85
2019-04-16T01:01:21.060Z,19.32
2019-04-16T01:03:50.457Z,19.02
2019-04-16T01:06:19.714Z,20.35
2019-04-16T01:08:54.842Z,19.65
2019-04-16T01:11:21.077Z,20.02
2019-04-16T01:13:50.383Z,19.98
2019-04-16T01:16:19.794Z,19.80
2019-04-16T01:18:49.189Z,17.70
2019-04-16T01:21:18.553Z,18.30
2019-04-16T01:23:49.326Z,18.80
2019-04-16T01:26:18.940Z,18.55
2019-04-16T01:29:08.267Z,18.70
2019-04-16T01:31:45.203Z,18.65
2019-04-16T01:34:28.479Z,18.92
2019-04-16T01:36:59.925Z,19.48
2019-04-16T01:39:30.949Z,19.12
2019-04-16T01:42:00.473Z,19.62
2019-04-16T01:44:30.786Z,18.62
2019-04-16T01:47:03.772Z,19.42
2019-04-16T01:49:31.432Z,18.67
2019-04-16T01:52:00.819Z,20.17
2019-04-16T01:54:30.188Z,18.85
2019-04-16T01:57:00.761Z,20.32
2019-04-16T01:59:35.620Z,19.10
2019-04-16T02:02:02.533Z,19.57
2019-04-16T02:04:33.003Z,19.42
2019-04-16T02:07:02.443Z,20.02
2019-04-16T02:09:34.597Z,19.52
2019-04-16T02:12:02.862Z,19.60
2019-04-16T02:14:32.134Z,20.05
2019-04-16T02:17:01.438Z,19.90
2019-04-16T02:19:32.879Z,19.27
2019-04-16T02:22:01.994Z,20.65
2019-04-16T02:24:31.514Z,20.70
2019-04-16T02:27:01.013Z,20.57
2019-04-16T02:29:30.689Z,20.25
2019-04-16T02:32:00.085Z,20.35
2019-04-16T02:34:29.357Z,20.43
2019-04-16T02:37:02.470Z,20.70
2019-04-16T02:39:47.189Z,21.30
2019-04-16T02:42:00.948Z,20.62
2019-04-16T02:44:30.202Z,20.88
2019-04-16T02:47:05.461Z,21.00
2019-04-16T02:49:30.575Z,20.43
2019-04-16T02:52:04.345Z,21.33
2019-04-16T02:54:47.815Z,20.82
2019-04-16T02:57:31.284Z,20.90
2019-04-16T03:00:03.797Z,20.60
2019-04-16T03:02:45.361Z,21.55
2019-04-16T03:05:16.483Z,20.85
2019-04-16T03:07:45.956Z,20.30
2019-04-16T03:10:15.268Z,20.50
2019-04-16T03:12:45.634Z,20.32
2019-04-16T03:15:16.672Z,20.55
2019-04-16T03:17:46.489Z,20.48
2019-04-16T03:20:20.919Z,20.90
2019-04-16T03:22:51.166Z,20.50
2019-04-16T03:25:20.466Z,20.48
2019-04-16T03:27:51.448Z,21.45
2019-04-16T03:30:20.835Z,21.95
2019-04-16T03:32:50.828Z,20.77
2019-04-16T03:35:25.365Z,21.02
2019-04-16T03:37:51.301Z,21.00
2019-04-16T03:40:24.782Z,21.73
2019-04-16T03:42:51.701Z,21.48
2019-04-16T03:45:21.038Z,21.27
2019-04-16T03:47:51.373Z,22.07
2019-04-16T03:50:21.352Z,22.35
2019-04-16T03:52:50.633Z,20.90
2019-04-16T03:55:25.388Z,22.27
2019-04-16T03:57:50.946Z,21.57
2019-04-16T04:00:20.313Z,21.52
2019-04-16T04:02:54.212Z,20.82
2019-04-16T04:05:20.671Z,21.07
2019-04-16T04:07:50.038Z,21.12
2019-04-16T04:10:30.560Z,21.33
2019-04-16T04:12:50.498Z,20.70
2019-04-16T04:15:19.886Z,21.85
2019-04-16T04:17:49.545Z,21.30
2019-04-16T04:20:19.371Z,20.97
2019-04-16T04:22:51.237Z,19.77
2019-04-16T04:25:20.797Z,21.40
2019-04-16T04:27:50.102Z,21.80
2019-04-16T04:30:21.361Z,21.40
2019-04-16T04:32:50.850Z,21.62
2019-04-16T04:35:22.127Z,20.02
2019-04-16T04:37:51.240Z,22.17
2019-04-16T04:40:20.538Z,22.02
2019-04-16T04:42:49.845Z,22.10
2019-04-16T04:45:19.119Z,20.60
2019-04-16T04:47:51.700Z,21.75
2019-04-16T04:50:19.712Z,21.50
2019-04-16T04:52:49.092Z,21.73
2019-04-16T04:55:18.612Z,21.82
2019-04-16T04:57:47.933Z,20.92
2019-04-16T05:00:17.254Z,19.98
2019-04-16T05:02:46.549Z,21.90
2019-04-16T05:05:18.341Z,21.05
2019-04-16T05:07:47.635Z,22.57
2019-04-16T05:10:16.910Z,21.52
2019-04-16T05:12:46.200Z,20.43
2019-04-16T05:15:15.807Z,21.05
2019-04-16T05:17:46.641Z,21.27
2019-04-16T05:20:17.560Z,21.20
2019-04-16T05:22:46.923Z,20.57
2019-04-16T05:25:16.231Z,21.60
2019-04-16T05:27:45.518Z,21.48
2019-04-16T05:30:19.937Z,20.65
2019-04-16T05:32:46.157Z,20.90
2019-04-16T05:35:15.456Z,20.30
2019-04-16T05:37:44.795Z,19.67
2019-04-16T05:40:14.231Z,18.87
2019-04-16T05:42:43.501Z,18.90
2019-04-16T05:45:12.976Z,19.77
2019-04-16T05:47:42.242Z,20.45
2019-04-16T05:50:11.752Z,18.57
2019-04-16T05:52:41.149Z,20.45
2019-04-16T05:55:29.434Z,19.17
2019-04-16T05:57:59.196Z,19.12
2019-04-16T06:00:41.683Z,19.10
2019-04-16T06:03:10.049Z,19.27
2019-04-16T06:05:39.488Z,19.92
2019-04-16T06:08:10.309Z,19.37
2019-04-16T06:10:40.147Z,18.20
2019-04-16T06:13:17.082Z,19.25
2019-04-16T06:15:50.257Z,19.05
2019-04-16T06:21:06.705Z,18.73
2019-04-16T06:23:54.127Z,20.00
2019-04-16T06:26:27.545Z,19.90
2019-04-16T06:29:01.603Z,19.30
2019-04-16T06:31:41.690Z,20.82
2019-04-16T06:34:28.741Z,20.70
2019-04-16T06:37:00.717Z,20.68
2019-04-16T06:39:31.704Z,19.77
2019-04-16T06:42:05.532Z,20.65
2019-04-16T06:44:36.454Z,20.23
2019-04-16T06:47:16.118Z,20.52
2019-04-16T06:49:51.044Z,21.00
2019-04-16T06:52:28.107Z,20.70
2019-04-16T06:55:03.550Z,20.55
2019-04-16T06:57:40.384Z,20.70
2019-04-16T07:00:11.138Z,19.85
2019-04-16T07:03:02.122Z,21.07
2019-04-16T07:05:33.233Z,20.60
2019-04-16T07:08:17.887Z,20.65
2019-04-16T07:11:00.835Z,20.20
2019-04-16T07:13:30.157Z,20.15
2019-04-16T07:15:59.465Z,19.65
2019-04-16T07:18:28.750Z,20.60
2019-04-16T07:20:58.057Z,20.30
2019-04-16T07:23:27.470Z,20.25
2019-04-16T07:25:56.935Z,19.73
2019-04-16T07:28:27.902Z,20.35
2019-04-16T07:31:14.868Z,20.30
2019-04-16T07:33:59.106Z,20.40
2019-04-16T07:36:39.320Z,19.75
2019-04-16T07:39:29.898Z,20.25
2019-04-16T07:42:09.803Z,20.48
2019-04-16T07:44:40.551Z,20.32
2019-04-16T07:47:11.518Z,20.23
2019-04-16T07:49:45.165Z,20.05
2019-04-16T07:52:22.520Z,20.37
2019-04-16T07:55:02.443Z,19.95
2019-04-16T07:57:31.771Z,19.23
2019-04-16T08:00:01.130Z,18.37
2019-04-16T08:02:30.845Z,19.75
2019-04-16T08:05:01.304Z,19.30
2019-04-16T08:07:30.746Z,18.65
2019-04-16T08:10:02.790Z,18.92
2019-04-16T08:12:32.185Z,18.42
2019-04-16T08:15:13.366Z,19.12
2019-04-16T08:17:33.035Z,19.40
2019-04-16T08:20:02.638Z,19.15
2019-04-16T08:22:32.348Z,19.65
2019-04-16T08:25:04.181Z,19.45
2019-04-16T08:27:33.572Z,18.65
2019-04-16T08:30:04.939Z,19.10
2019-04-16T08:32:34.324Z,18.85
2019-04-16T08:35:04.108Z,19.27
2019-04-16T08:37:33.540Z,18.92
2019-04-16T08:40:02.820Z,20.15
2019-04-16T08:42:43.852Z,19.50
2019-04-16T08:45:07.366Z,19.32
2019-04-16T08:47:35.360Z,19.52
2019-04-16T08:50:05.166Z,18.92
2019-04-16T08:52:34.494Z,20.00
2019-04-16T08:55:04.026Z,19.60
2019-04-16T08:57:34.456Z,20.10
2019-04-16T09:00:11.323Z,19.80
2019-04-16T09:02:39.707Z,19.12
2019-04-16T09:05:11.695Z,21.00
2019-04-16T09:07:41.432Z,20.40
2019-04-16T09:10:19.033Z,20.30
2019-04-16T09:13:01.698Z,20.85
2019-04-16T09:15:27.093Z,20.17
2019-04-16T09:17:57.809Z,20.02
2019-04-16T09:20:28.742Z,20.20
2019-04-16T09:22:59.157Z,19.25
2019-04-16T09:25:36.237Z,19.65
2019-04-16T09:28:24.885Z,20.88
2019-04-16T09:30:59.182Z,20.00
2019-04-16T09:33:30.477Z,19.42
2019-04-16T09:36:21.067Z,20.50
2019-04-16T09:38:52.039Z,20.55
2019-04-16T09:41:22.978Z,20.30
2019-04-16T09:43:58.035Z,20.75
2019-04-16T09:46:49.785Z,21.02
2019-04-16T09:48:59.575Z,20.80
2019-04-16T09:51:29.008Z,21.15
2019-04-16T09:53:58.371Z,20.48
2019-04-16T09:56:29.484Z,20.97
2019-04-16T09:59:02.300Z,20.25
2019-04-16T10:04:15.208Z,19.70
2019-04-16T10:06:44.502Z,20.68
2019-04-16T10:09:13.831Z,21.97
2019-04-16T10:11:43.185Z,20.10
2019-04-16T10:14:12.490Z,20.17
2019-04-16T10:16:42.014Z,20.68
2019-04-16T10:19:11.292Z,20.10
2019-04-16T10:21:40.688Z,19.85
2019-04-16T10:24:15.646Z,21.87
2019-04-16T10:26:46.755Z,19.82
2019-04-16T10:29:17.687Z,18.85
2019-04-16T10:31:47.204Z,21.17
2019-04-16T10:34:16.575Z,22.17
2019-04-16T10:36:45.926Z,19.62
2019-04-16T10:39:19.674Z,21.00
2019-04-16T10:41:56.287Z,20.65
2019-04-16T10:44:44.380Z,20.10
2019-04-16T10:47:16.739Z,20.35
2019-04-16T10:49:53.646Z,19.67
2019-04-16T10:52:27.432Z,20.52
2019-04-16T10:54:58.704Z,22.30
2019-04-16T10:57:32.450Z,21.67
2019-04-16T11:00:03.431Z,21.48
2019-04-16T11:02:36.050Z,22.65
2019-04-16T11:05:15.226Z,19.80
2019-04-16T11:07:52.810Z,21.42
2019-04-16T11:10:22.078Z,21.37
2019-04-16T11:12:51.532Z,22.05
2019-04-16T11:15:22.519Z,22.15
2019-04-16T11:17:51.975Z,20.82
2019-04-16T11:20:21.404Z,20.43
2019-04-16T11:22:50.993Z,23.47
2019-04-16T11:25:20.370Z,22.20
2019-04-16T11:27:49.942Z,22.85
2019-04-16T11:30:32.927Z,22.90
2019-04-16T11:33:02.239Z,20.10
2019-04-16T11:35:31.706Z,21.23
2019-04-16T11:38:01.015Z,20.60
2019-04-16T11:40:30.308Z,21.23
2019-04-16T11:42:59.718Z,21.20
2019-04-16T11:45:29.227Z,21.35
2019-04-16T11:47:58.580Z,22.40
2019-04-16T11:50:29.005Z,21.10
2019-04-16T11:52:58.826Z,21.17
2019-04-16T11:55:28.122Z,20.82
2019-04-16T11:57:57.450Z,20.90
2019-04-16T12:00:28.593Z,21.02
2019-04-16T12:03:11.276Z,21.50
2019-04-16T12:05:42.190Z,22.30
2019-04-16T12:08:18.947Z,21.27
2019-04-16T12:10:58.670Z,22.13
2019-04-16T12:13:32.268Z,22.00
2019-04-16T12:16:06.219Z,22.05
2019-04-16T12:18:37.373Z,23.35
2019-04-16T12:21:11.350Z,22.80
2019-04-16T12:23:58.889Z,21.95
2019-04-16T12:26:29.872Z,21.97
2019-04-16T12:29:07.029Z,23.20
2019-04-16T12:31:40.857Z,21.75
2019-04-16T12:34:14.267Z,21.33
2019-04-16T12:37:01.826Z,22.67
2019-04-16T12:39:36.236Z,22.17
2019-04-16T12:42:23.652Z,22.75
2019-04-16T12:45:10.087Z,22.22
2019-04-16T12:47:41.070Z,22.62
2019-04-16T12:50:16.756Z,21.40
2019-04-16T12:53:04.436Z,22.15
2019-04-16T12:55:41.117Z,21.45
2019-04-16T12:58:12.026Z,21.97
2019-04-16T13:00:59.738Z,21.07
2019-04-16T13:03:33.328Z,22.05
2019-04-16T13:06:16.106Z,22.02
2019-04-16T13:08:47.465Z,23.57
2019-04-16T13:11:18.946Z,22.40
2019-04-16T13:13:52.901Z,25.70
2019-04-16T13:16:26.657Z,23.57
2019-04-16T13:19:06.869Z,22.32
2019-04-16T13:21:50.687Z,23.35
2019-04-16T13:24:27.805Z,23.12
2019-04-16T13:26:58.940Z,23.12
2019-04-16T13:29:30.569Z,23.18
2019-04-16T13:32:00.079Z,22.22
2019-04-16T13:34:30.914Z,22.58
2019-04-16T13:37:00.975Z,22.77
2019-04-16T13:39:32.287Z,22.75
2019-04-16T13:42:01.925Z,24.82
2019-04-16T13:44:37.642Z,25.12
2019-04-16T13:47:07.019Z,24.07
2019-04-16T13:49:37.994Z,21.45
2019-04-16T13:52:07.320Z,21.10
2019-04-16T13:54:38.313Z,21.35
2019-04-16T13:57:12.293Z,22.30
2019-04-16T14:00:03.198Z,21.30
2019-04-16T14:02:51.052Z,23.50
2019-04-16T14:05:21.953Z,23.75
2019-04-16T14:07:51.275Z,21.20
2019-04-16T14:10:20.636Z,20.60
2019-04-16T14:12:50.393Z,22.00
2019-04-16T14:15:31.732Z,21.62
2019-04-16T14:17:53.388Z,22.62
2019-04-16T14:20:23.046Z,22.48
2019-04-16T14:22:53.669Z,23.30
2019-04-16T14:25:23.754Z,26.00
2019-04-16T14:27:55.364Z,22.48
2019-04-16T14:30:27.466Z,23.35
2019-04-16T14:32:56.837Z,23.98
2019-04-16T14:35:33.436Z,26.00
2019-04-16T14:38:00.532Z,27.48
2019-04-16T14:40:29.896Z,27.17
2019-04-16T14:42:59.341Z,29.07
2019-04-16T14:45:34.769Z,27.05
2019-04-16T14:48:04.955Z,28.75
2019-04-16T14:50:33.403Z,26.57
2019-04-16T14:53:02.972Z,28.77
2019-04-16T14:55:37.017Z,26.02
2019-04-16T14:58:24.169Z,35.20
2019-04-16T15:00:55.160Z,33.38
2019-04-16T15:03:43.438Z,26.17
2019-04-16T15:06:31.183Z,24.55
2019-04-16T15:09:02.136Z,24.80
2019-04-16T15:14:13.733Z,24.25
2019-04-16T15:16:51.938Z,26.07
2019-04-16T15:19:25.760Z,24.67
2019-04-16T15:21:58.608Z,24.43
2019-04-16T15:24:32.439Z,25.07
2019-04-16T15:27:18.771Z,26.02
2019-04-16T15:29:56.465Z,25.55
2019-04-16T15:32:28.478Z,26.25
2019-04-16T15:34:58.629Z,25.60
2019-04-16T15:37:29.578Z,25.02
2019-04-16T15:40:00.827Z,25.40
2019-04-16T15:42:48.126Z,23.70
2019-04-16T15:45:32.781Z,20.48
2019-04-16T15:48:14.874Z,20.40
2019-04-16T15:50:45.664Z,20.40
2019-04-16T15:53:16.740Z,20.17
2019-04-16T15:55:53.488Z,20.23
2019-04-16T15:58:32.504Z,20.00
2019-04-16T16:01:03.418Z,19.80
2019-04-16T16:03:37.115Z,20.80
2019-04-16T16:06:08.277Z,20.68
2019-04-16T16:08:45.214Z,19.77
2019-04-16T16:11:17.293Z,19.85
2019-04-16T16:13:47.761Z,19.73
2019-04-16T16:16:18.022Z,20.15
2019-04-16T16:18:48.420Z,20.45
2019-04-16T16:21:17.713Z,21.07
2019-04-16T16:23:47.338Z,20.08
2019-04-16T16:26:16.936Z,20.25
2019-04-16T16:28:46.333Z,21.27
2019-04-16T16:31:17.223Z,20.68
2019-04-16T16:33:46.723Z,20.35
2019-04-16T16:36:16.231Z,20.55
2019-04-16T16:38:48.245Z,21.20
2019-04-16T16:41:16.688Z,20.72
2019-04-16T16:43:45.984Z,21.80
2019-04-16T16:46:20.192Z,22.07
2019-04-16T16:48:51.754Z,21.93
2019-04-16T16:51:22.992Z,22.27
2019-04-16T16:54:09.841Z,22.00
2019-04-16T16:56:56.047Z,21.57
2019-04-16T16:59:32.913Z,25.75
2019-04-16T17:02:21.991Z,26.45
2019-04-16T17:04:52.944Z,28.10
2019-04-16T17:07:22.306Z,27.20
2019-04-16T17:09:51.702Z,27.35
2019-04-16T17:12:20.978Z,27.73
2019-04-16T17:14:50.286Z,29.87
2019-04-16T17:17:19.585Z,31.57
2019-04-16T17:19:50.824Z,30.50
2019-04-16T17:22:21.396Z,28.30
2019-04-16T17:24:50.784Z,28.32
2019-04-16T17:27:21.034Z,28.90
2019-04-16T17:29:50.922Z,27.52
2019-04-16T17:32:22.004Z,27.37
2019-04-16T17:34:51.454Z,28.00
2019-04-16T17:37:27.423Z,28.77
2019-04-16T17:39:57.509Z,25.32
2019-04-16T17:42:28.747Z,27.42
2019-04-16T17:45:16.158Z,25.95
2019-04-16T17:48:02.292Z,19.85
2019-04-16T17:50:40.253Z,17.42
2019-04-16T18:00:37.670Z,17.70
2019-04-16T18:03:14.870Z,16.45
2019-04-16T18:05:48.745Z,16.90
2019-04-16T18:08:22.751Z,16.73
2019-04-16T18:10:54.015Z,16.93
2019-04-16T18:13:24.974Z,16.77
2019-04-16T18:15:56.116Z,16.82
2019-04-16T18:18:30.152Z,17.30
2019-04-16T18:21:13.452Z,18.37
2019-04-16T18:24:00.833Z,17.42
2019-04-16T18:26:47.724Z,16.93
2019-04-16T18:29:18.902Z,17.12
2019-04-16T18:31:57.386Z,17.05
2019-04-16T18:34:43.476Z,17.17
2019-04-16T18:37:28.376Z,17.12
2019-04-16T18:40:05.028Z,16.35
2019-04-16T18:42:35.069Z,16.70
2019-04-16T18:45:06.099Z,16.27
2019-04-16T18:47:37.140Z,15.83
2019-04-16T18:50:08.804Z,15.25
2019-04-16T18:52:38.191Z,13.98
2019-04-16T18:55:08.126Z,14.80
2019-04-16T18:57:38.354Z,14.13
2019-04-16T19:00:10.368Z,14.18
2019-04-16T19:02:42.075Z,13.25
2019-04-16T19:05:12.279Z,13.28
2019-04-16T19:07:41.818Z,12.80
2019-04-16T19:10:11.141Z,13.43
2019-04-16T19:12:40.554Z,12.37
2019-04-16T19:15:09.907Z,12.25
2019-04-16T19:17:39.227Z,12.60
2019-04-16T19:20:08.631Z,12.43
2019-04-16T19:22:38.091Z,11.68
2019-04-16T19:25:08.994Z,12.10
2019-04-16T19:27:40.240Z,11.00
2019-04-16T19:30:10.657Z,12.10
2019-04-16T19:32:39.981Z,11.63
2019-04-16T19:35:11.448Z,11.45
2019-04-16T19:37:40.498Z,11.93
2019-04-16T19:40:16.064Z,11.90
2019-04-16T19:42:44.240Z,11.85
2019-04-16T19:45:13.746Z,11.65
2019-04-16T19:47:44.951Z,11.08
2019-04-16T19:50:14.420Z,11.30
2019-04-16T19:52:45.726Z,11.55
2019-04-16T19:55:18.098Z,10.90
2019-04-16T19:57:48.982Z,11.20
2019-04-16T20:00:22.874Z,10.78
2019-04-16T20:02:49.949Z,11.12
2019-04-16T20:05:19.399Z,11.30
2019-04-16T20:07:49.135Z,11.35
2019-04-16T20:10:20.116Z,10.90
2019-04-16T20:12:49.507Z,11.78
2019-04-16T20:15:18.786Z,12.03
2019-04-16T20:17:48.294Z,11.33
2019-04-16T20:20:17.679Z,11.43
2019-04-16T20:22:49.985Z,12.98
2019-04-16T20:25:19.449Z,13.30
2019-04-16T20:27:50.328Z,12.33
2019-04-16T20:30:23.065Z,12.93
2019-04-16T20:32:50.753Z,11.63
2019-04-16T20:35:20.067Z,11.20
2019-04-16T20:37:53.375Z,10.25
2019-04-16T20:40:22.661Z,10.82
2019-04-16T20:42:52.003Z,10.10
2019-04-16T20:45:21.454Z,10.30
2019-04-16T20:47:50.775Z,10.13
2019-04-16T20:50:20.851Z,10.43
2019-04-16T20:52:52.021Z,10.90
2019-04-16T20:55:21.389Z,11.60
2019-04-16T20:57:55.320Z,10.95
2019-04-16T21:00:26.026Z,10.28
2019-04-16T21:02:55.416Z,11.38
2019-04-16T21:05:24.719Z,10.68
2019-04-16T21:07:54.249Z,11.22
2019-04-16T21:10:23.518Z,10.75
2019-04-16T21:12:54.871Z,10.68
2019-04-16T21:15:27.456Z,11.15
2019-04-16T21:17:54.965Z,10.93
2019-04-16T21:20:24.537Z,11.00
2019-04-16T21:22:57.615Z,11.15
2019-04-16T21:25:25.126Z,11.33
2019-04-16T21:27:56.193Z,11.05
2019-04-16T21:30:25.559Z,11.22
2019-04-16T21:32:59.583Z,11.12
2019-04-16T21:35:45.741Z,10.93
2019-04-16T21:38:19.438Z,10.93
2019-04-16T21:40:48.739Z,10.78
2019-04-16T21:43:18.150Z,10.23
2019-04-16T21:45:51.746Z,10.03
2019-04-16T21:48:23.795Z,9.75
2019-04-16T21:50:54.167Z,10.45
2019-04-16T21:53:24.545Z,9.85
2019-04-16T21:55:55.405Z,8.83
2019-04-16T21:58:25.123Z,9.45
2019-04-16T22:00:59.761Z,9.50
2019-04-16T22:03:31.579Z,8.85
2019-04-16T22:06:02.536Z,8.58
2019-04-16T22:08:31.943Z,8.68
2019-04-16T22:11:01.305Z,8.60
2019-04-16T22:13:30.831Z,9.05
2019-04-16T22:16:00.167Z,9.03
2019-04-16T22:18:29.669Z,9.33
2019-04-16T22:20:59.016Z,8.75
2019-04-16T22:23:28.419Z,9.38
2019-04-16T22:26:01.347Z,8.63
2019-04-16T22:28:29.441Z,9.03
2019-04-16T22:30:58.799Z,9.18
2019-04-16T22:33:28.242Z,9.05
2019-04-16T22:35:57.528Z,8.85
2019-04-16T22:38:28.516Z,8.90
2019-04-16T22:40:59.479Z,8.95
2019-04-16T22:43:46.920Z,9.60
2019-04-16T22:46:27.059Z,9.43
2019-04-16T22:48:57.653Z,10.15
2019-04-16T22:51:26.977Z,10.45
2019-04-16T22:53:56.586Z,10.13
2019-04-16T22:56:28.391Z,9.90
2019-04-16T22:58:58.478Z,9.63
2019-04-16T23:01:29.410Z,9.88
2019-04-16T23:03:58.956Z,9.33
2019-04-16T23:06:28.329Z,8.73
2019-04-16T23:08:57.741Z,9.18
2019-04-16T23:11:27.186Z,9.98
2019-04-16T23:13:57.038Z,9.68
2019-04-16T23:16:26.456Z,10.10
2019-04-16T23:18:56.126Z,9.20
2019-04-16T23:21:25.469Z,9.38
2019-04-16T23:23:54.740Z,9.75
2019-04-16T23:26:24.124Z,10.43
2019-04-16T23:28:53.599Z,10.38
2019-04-16T23:31:23.728Z,11.22
2019-04-16T23:33:53.168Z,11.03
2019-04-16T23:36:22.615Z,11.08
2019-04-16T23:38:51.899Z,10.82
2019-04-16T23:41:21.235Z,11.57
2019-04-16T23:43:54.949Z,12.03
2019-04-16T23:46:34.664Z,12.03
2019-04-16T23:49:16.527Z,12.78
2019-04-16T23:51:49.436Z,12.85
2019-04-16T23:54:20.511Z,12.82
2019-04-16T23:56:57.380Z,13.65
2019-04-16T23:59:32.607Z,13.22
